createdAt,value
2018-01-23T00:00:33.458Z,2.30
2018-01-23T00:02:59.687Z,2.30
2018-01-23T00:05:26.449Z,2.40
2018-01-23T00:07:53.652Z,2.40
2018-01-23T00:10:21.288Z,2.30
2018-01-23T00:12:48.306Z,2.20
2018-01-23T00:15:14.522Z,2.20
2018-01-23T00:17:40.986Z,2.20
2018-01-23T00:20:08.351Z,2.20
2018-01-23T00:22:35.993Z,2.20
2018-01-23T00:25:03.289Z,2.20
2018-01-23T00:27:30.756Z,2.20
2018-01-23T00:29:57.212Z,2.20
2018-01-23T00:32:23.425Z,2.20
2018-01-23T00:34:49.692Z,2.30
2018-01-23T00:37:17.065Z,2.30
2018-01-23T00:39:43.279Z,2.30
2018-01-23T00:42:09.507Z,2.30
2018-01-23T00:44:36.419Z,2.40
2018-01-23T00:47:02.886Z,2.50
2018-01-23T00:49:29.804Z,2.50
2018-01-23T00:51:56.619Z,2.50
2018-01-23T00:54:23.268Z,2.40
2018-01-23T00:56:50.926Z,2.50
2018-01-23T00:59:17.164Z,2.50
2018-01-23T01:01:43.611Z,2.50
2018-01-23T01:04:12.022Z,2.50
2018-01-23T01:06:38.999Z,2.50
2018-01-23T01:09:06.794Z,2.50
2018-01-23T01:11:32.986Z,2.50
2018-01-23T01:14:00.355Z,2.50
2018-01-23T01:16:27.495Z,2.50
2018-01-23T01:18:53.727Z,2.40
2018-01-23T01:21:19.918Z,2.50
2018-01-23T01:23:46.270Z,2.60
2018-01-23T01:26:13.498Z,2.50
2018-01-23T01:28:40.506Z,2.60
2018-01-23T01:31:06.714Z,2.50
2018-01-23T01:33:32.928Z,2.60
2018-01-23T01:35:59.865Z,2.50
2018-01-23T01:38:26.826Z,2.50
2018-01-23T01:40:54.136Z,2.50
2018-01-23T01:43:20.346Z,2.50
2018-01-23T01:45:46.583Z,2.50
2018-01-23T01:48:12.917Z,2.50
2018-01-23T01:50:39.997Z,2.50
2018-01-23T01:53:06.933Z,2.50
2018-01-23T01:55:34.121Z,2.50
2018-01-23T01:58:00.348Z,2.50
2018-01-23T02:00:26.574Z,2.50
2018-01-23T02:02:52.803Z,2.60
2018-01-23T02:05:19.014Z,2.60
2018-01-23T02:07:45.874Z,2.60
2018-01-23T02:10:12.095Z,2.60
2018-01-23T02:12:39.330Z,2.60
2018-01-23T02:15:06.296Z,2.50
2018-01-23T02:17:32.945Z,2.50
2018-01-23T02:19:59.262Z,2.60
2018-01-23T02:22:25.450Z,2.50
2018-01-23T02:24:51.914Z,2.50
2018-01-23T02:27:18.855Z,2.50
2018-01-23T02:29:45.725Z,2.60
2018-01-23T02:32:12.846Z,2.60
2018-01-23T02:34:39.894Z,2.60
2018-01-23T02:37:06.153Z,2.60
2018-01-23T02:39:32.396Z,2.60
2018-01-23T02:41:58.586Z,2.70
2018-01-23T02:44:25.826Z,2.70
2018-01-23T02:46:52.034Z,2.60
2018-01-23T02:49:19.259Z,2.60
2018-01-23T02:51:46.237Z,2.50
2018-01-23T02:54:13.536Z,2.50
2018-01-23T02:56:40.541Z,2.40
2018-01-23T02:59:07.649Z,2.30
2018-01-23T03:01:33.950Z,2.30
2018-01-23T03:04:00.681Z,2.20
2018-01-23T03:06:27.722Z,2.10
2018-01-23T03:08:54.373Z,2.20
2018-01-23T03:11:22.315Z,2.20
2018-01-23T03:13:49.250Z,2.20
2018-01-23T03:16:16.192Z,2.30
2018-01-23T03:18:43.150Z,2.40
2018-01-23T03:21:10.056Z,2.30
2018-01-23T03:23:37.347Z,2.40
2018-01-23T03:26:04.817Z,2.40
2018-01-23T03:28:31.034Z,2.40
2018-01-23T03:30:57.226Z,2.50
2018-01-23T03:33:23.747Z,2.50
2018-01-23T03:35:50.220Z,2.50
2018-01-23T03:38:17.381Z,2.60
2018-01-23T03:40:44.441Z,2.60
2018-01-23T03:43:11.472Z,2.60
2018-01-23T03:45:38.866Z,2.70
2018-01-23T03:48:06.517Z,2.70
2018-01-23T03:50:32.726Z,2.70
2018-01-23T03:52:59.826Z,2.70
2018-01-23T03:55:26.368Z,2.70
2018-01-23T03:57:53.681Z,2.80
2018-01-23T04:00:21.251Z,2.80
2018-01-23T04:02:47.456Z,2.80
2018-01-23T04:05:14.235Z,2.80
2018-01-23T04:07:41.152Z,2.80
2018-01-23T04:10:07.351Z,2.80
2018-01-23T04:12:33.720Z,2.80
2018-01-23T04:14:59.911Z,2.80
2018-01-23T04:17:26.090Z,2.70
2018-01-23T04:19:52.291Z,2.70
2018-01-23T04:22:19.231Z,2.80
2018-01-23T04:24:46.259Z,2.70
2018-01-23T04:27:13.479Z,2.70
2018-01-23T04:29:40.439Z,2.80
2018-01-23T04:32:07.405Z,2.70
2018-01-23T04:34:33.599Z,2.70
2018-01-23T04:37:00.670Z,2.70
2018-01-23T04:39:27.923Z,2.70
2018-01-23T04:41:54.971Z,2.70
2018-01-23T04:44:22.832Z,2.70
2018-01-23T04:46:49.892Z,2.70
2018-01-23T04:49:16.690Z,2.70
2018-01-23T04:51:43.344Z,2.80
2018-01-23T04:54:10.377Z,2.80
2018-01-23T04:56:36.708Z,2.70
2018-01-23T04:59:02.917Z,2.70
2018-01-23T05:01:29.652Z,2.70
2018-01-23T05:03:56.443Z,2.70
2018-01-23T05:06:22.713Z,2.70
2018-01-23T05:08:49.563Z,2.70
2018-01-23T05:11:17.518Z,2.60
2018-01-23T05:13:44.019Z,2.50
2018-01-23T05:16:11.630Z,2.30
2018-01-23T05:18:38.908Z,2.30
2018-01-23T05:21:05.102Z,2.30
2018-01-23T05:23:31.333Z,2.30
2018-01-23T05:25:57.545Z,2.40
2018-01-23T05:28:24.434Z,2.50
2018-01-23T05:30:51.357Z,2.50
2018-01-23T05:33:18.009Z,2.60
2018-01-23T05:35:44.378Z,2.60
2018-01-23T05:38:11.153Z,2.60
2018-01-23T05:40:37.664Z,2.70
2018-01-23T05:43:04.659Z,2.70
2018-01-23T05:45:31.989Z,2.70
2018-01-23T05:47:59.031Z,2.80
2018-01-23T05:50:26.352Z,2.70
2018-01-23T05:52:54.007Z,2.80
2018-01-23T05:55:20.517Z,2.70
2018-01-23T05:57:47.836Z,2.70
2018-01-23T06:00:14.684Z,2.70
2018-01-23T06:02:40.871Z,2.80
2018-01-23T06:05:07.090Z,2.90
2018-01-23T06:07:33.501Z,2.90
2018-01-23T06:10:00.495Z,2.90
2018-01-23T06:12:27.342Z,2.90
2018-01-23T06:14:53.553Z,2.90
2018-01-23T06:17:19.834Z,2.90
2018-01-23T06:19:46.054Z,3.00
2018-01-23T06:22:12.396Z,2.90
2018-01-23T06:24:38.706Z,3.10
2018-01-23T06:27:05.949Z,3.10
2018-01-23T06:29:32.454Z,3.00
2018-01-23T06:31:58.734Z,3.00
2018-01-23T06:34:25.055Z,3.00
2018-01-23T06:36:51.231Z,3.00
2018-01-23T06:39:17.533Z,3.10
2018-01-23T06:41:44.849Z,3.10
2018-01-23T06:44:11.929Z,3.10
2018-01-23T06:46:38.685Z,3.10
2018-01-23T06:49:05.708Z,3.20
2018-01-23T06:51:31.903Z,3.10
2018-01-23T06:53:58.126Z,3.20
2018-01-23T06:56:24.836Z,3.10
2018-01-23T06:58:51.683Z,3.10
2018-01-23T07:01:19.308Z,3.10
2018-01-23T07:03:45.498Z,3.10
2018-01-23T07:06:12.230Z,3.20
2018-01-23T07:08:39.669Z,3.20
2018-01-23T07:11:05.890Z,3.10
2018-01-23T07:13:32.998Z,3.20
2018-01-23T07:15:59.978Z,3.20
2018-01-23T07:18:26.340Z,3.20
2018-01-23T07:20:52.625Z,3.20
2018-01-23T07:23:19.678Z,3.10
2018-01-23T07:25:46.634Z,3.10
2018-01-23T07:28:12.862Z,3.00
2018-01-23T07:30:39.060Z,3.00
2018-01-23T07:33:05.309Z,3.00
2018-01-23T07:35:31.726Z,3.10
2018-01-23T07:37:58.685Z,3.00
2018-01-23T07:40:26.872Z,3.00
2018-01-23T07:42:53.106Z,3.00
2018-01-23T07:45:19.333Z,3.00
2018-01-23T07:47:45.555Z,3.00
2018-01-23T07:50:12.330Z,3.00
2018-01-23T07:52:38.703Z,2.90
2018-01-23T07:55:04.928Z,2.90
2018-01-23T07:57:31.935Z,2.90
2018-01-23T07:59:58.159Z,2.90
2018-01-23T08:02:24.585Z,2.90
2018-01-23T08:04:50.900Z,2.90
2018-01-23T08:07:17.330Z,2.90
2018-01-23T08:09:44.587Z,3.10
2018-01-23T08:12:12.142Z,3.10
2018-01-23T08:14:38.471Z,3.10
2018-01-23T08:17:05.205Z,3.00
2018-01-23T08:19:31.575Z,3.00
2018-01-23T08:21:58.194Z,3.10
2018-01-23T08:24:24.514Z,3.10
2018-01-23T08:26:50.891Z,3.10
2018-01-23T08:29:17.773Z,3.10
2018-01-23T08:31:44.012Z,3.00
2018-01-23T08:34:11.231Z,3.00
2018-01-23T08:36:38.945Z,2.90
2018-01-23T08:39:05.485Z,2.90
2018-01-23T08:41:32.497Z,2.90
2018-01-23T08:43:59.771Z,2.90
2018-01-23T08:46:25.997Z,2.90
2018-01-23T08:48:52.198Z,2.90
2018-01-23T08:51:19.410Z,2.90
2018-01-23T08:53:46.629Z,3.00
2018-01-23T08:56:12.969Z,2.90
2018-01-23T08:58:39.773Z,3.00
2018-01-23T09:01:08.789Z,3.10
2018-01-23T09:03:35.055Z,3.10
2018-01-23T09:06:01.769Z,3.10
2018-01-23T09:08:28.516Z,3.20
2018-01-23T09:10:55.461Z,3.30
2018-01-23T09:13:21.684Z,3.20
2018-01-23T09:15:48.517Z,3.20
2018-01-23T09:18:15.283Z,3.30
2018-01-23T09:20:41.645Z,3.40
2018-01-23T09:23:08.600Z,3.40
2018-01-23T09:25:35.409Z,3.40
2018-01-23T09:28:01.646Z,3.40
2018-01-23T09:30:28.875Z,3.40
2018-01-23T09:32:55.830Z,3.50
2018-01-23T09:35:23.902Z,4.00
2018-01-23T09:37:50.141Z,3.90
2018-01-23T09:40:16.886Z,3.90
2018-01-23T09:42:44.628Z,4.00
2018-01-23T09:45:10.841Z,3.90
2018-01-23T09:47:37.538Z,3.90
2018-01-23T09:50:03.910Z,3.90
2018-01-23T09:52:30.868Z,3.90
2018-01-23T09:54:57.447Z,3.90
2018-01-23T09:57:24.450Z,3.80
2018-01-23T09:59:50.707Z,3.80
2018-01-23T10:02:18.313Z,3.80
2018-01-23T10:04:45.442Z,3.80
2018-01-23T10:07:11.641Z,3.80
2018-01-23T10:09:38.846Z,3.80
2018-01-23T10:12:05.130Z,3.70
2018-01-23T10:14:32.095Z,3.80
2018-01-23T10:16:58.971Z,3.70
2018-01-23T10:19:25.690Z,3.70
2018-01-23T10:21:53.256Z,3.70
2018-01-23T10:24:19.638Z,3.70
2018-01-23T10:26:45.840Z,3.70
2018-01-23T10:29:12.048Z,3.70
2018-01-23T10:31:39.255Z,3.80
2018-01-23T10:34:06.200Z,4.00
2018-01-23T10:36:33.726Z,4.00
2018-01-23T10:39:00.157Z,4.00
2018-01-23T10:41:26.992Z,3.90
2018-01-23T10:43:53.750Z,3.90
2018-01-23T10:46:21.468Z,3.80
2018-01-23T10:48:49.383Z,3.70
2018-01-23T10:51:15.658Z,3.70
2018-01-23T10:53:41.865Z,3.70
2018-01-23T10:56:08.820Z,3.80
2018-01-23T10:58:35.355Z,3.80
2018-01-23T11:01:05.585Z,3.90
2018-01-23T11:03:32.374Z,3.80
2018-01-23T11:05:58.620Z,3.70
2018-01-23T11:08:25.594Z,3.50
2018-01-23T11:10:51.873Z,3.50
2018-01-23T11:13:19.241Z,3.60
2018-01-23T11:15:45.478Z,3.60
2018-01-23T11:18:12.718Z,3.70
2018-01-23T11:20:39.009Z,3.70
2018-01-23T11:23:05.258Z,3.80
2018-01-23T11:25:31.518Z,3.60
2018-01-23T11:27:58.908Z,3.70
2018-01-23T11:30:25.145Z,3.70
2018-01-23T11:32:51.794Z,3.80
2018-01-23T11:35:18.966Z,3.80
2018-01-23T11:37:45.699Z,3.80
2018-01-23T11:40:13.141Z,3.70
2018-01-23T11:42:40.197Z,3.70
2018-01-23T11:45:06.636Z,3.70
2018-01-23T11:47:33.053Z,3.70
2018-01-23T11:49:59.500Z,3.80
2018-01-23T11:52:26.486Z,3.70
2018-01-23T11:54:53.975Z,3.70
2018-01-23T11:57:20.812Z,3.70
2018-01-23T11:59:47.015Z,3.70
2018-01-23T12:02:14.625Z,3.60
2018-01-23T12:04:41.746Z,3.70
2018-01-23T12:07:08.154Z,3.60
2018-01-23T12:09:35.141Z,3.70
2018-01-23T12:12:01.333Z,3.70
2018-01-23T12:14:27.662Z,3.80
2018-01-23T12:16:54.474Z,3.80
2018-01-23T12:19:21.263Z,3.80
2018-01-23T12:21:48.412Z,3.80
2018-01-23T12:24:15.603Z,3.80
2018-01-23T12:26:42.416Z,3.80
2018-01-23T12:29:09.146Z,3.90
2018-01-23T12:31:36.431Z,3.90
2018-01-23T12:34:03.458Z,3.90
2018-01-23T12:36:29.983Z,3.90
2018-01-23T12:38:57.476Z,4.00
2018-01-23T12:41:24.269Z,4.10
2018-01-23T12:43:51.036Z,4.00
2018-01-23T12:46:17.777Z,4.00
2018-01-23T12:48:44.011Z,4.10
2018-01-23T12:51:10.809Z,4.10
2018-01-23T12:53:38.004Z,4.10
2018-01-23T12:56:04.448Z,4.10
2018-01-23T12:58:31.642Z,4.30
2018-01-23T13:00:58.710Z,4.20
2018-01-23T13:03:24.910Z,4.20
2018-01-23T13:05:52.389Z,4.20
2018-01-23T13:08:19.185Z,4.20
2018-01-23T13:10:46.190Z,4.10
2018-01-23T13:13:13.833Z,4.10
2018-01-23T13:15:40.853Z,4.10
2018-01-23T13:18:08.849Z,4.10
2018-01-23T13:20:35.183Z,4.10
2018-01-23T13:23:01.440Z,4.00
2018-01-23T13:25:28.818Z,4.10
2018-01-23T13:27:55.311Z,4.00
2018-01-23T13:30:21.810Z,4.00
2018-01-23T13:32:48.407Z,4.00
2018-01-23T13:35:15.743Z,3.90
2018-01-23T13:37:42.372Z,3.80
2018-01-23T13:40:08.870Z,3.80
2018-01-23T13:42:37.119Z,3.90
2018-01-23T13:45:03.795Z,3.80
2018-01-23T13:47:31.904Z,3.80
2018-01-23T13:49:59.091Z,3.80
2018-01-23T13:52:26.911Z,3.80
2018-01-23T13:54:53.191Z,3.80
2018-01-23T13:57:20.452Z,3.70
2018-01-23T13:59:48.643Z,3.70
2018-01-23T14:02:15.018Z,3.70
2018-01-23T14:04:41.258Z,3.70
2018-01-23T14:07:07.787Z,3.70
2018-01-23T14:09:34.019Z,3.70
2018-01-23T14:12:01.788Z,3.80
2018-01-23T14:14:28.919Z,3.90
2018-01-23T14:16:55.882Z,3.80
2018-01-23T14:19:22.178Z,3.90
2018-01-23T14:21:48.411Z,3.80
2018-01-23T14:24:15.257Z,3.90
2018-01-23T14:26:41.793Z,3.90
2018-01-23T14:29:09.126Z,3.90
2018-01-23T14:31:35.358Z,3.80
2018-01-23T14:34:02.313Z,3.80
2018-01-23T14:36:29.616Z,3.90
2018-01-23T14:38:56.924Z,3.90
2018-01-23T14:41:23.116Z,3.90
2018-01-23T14:43:49.729Z,3.90
2018-01-23T14:46:18.012Z,3.90
2018-01-23T14:48:45.094Z,3.90
2018-01-23T14:51:11.883Z,3.90
2018-01-23T14:53:38.259Z,3.90
2018-01-23T14:58:38.217Z,3.90
2018-01-23T15:01:04.918Z,3.80
2018-01-23T15:03:31.981Z,3.90
2018-01-23T15:05:59.186Z,3.90
2018-01-23T15:08:26.129Z,3.90
2018-01-23T15:10:53.345Z,3.90
2018-01-23T15:13:19.521Z,3.90
2018-01-23T15:15:47.139Z,3.80
2018-01-23T15:18:13.348Z,3.80
2018-01-23T15:20:39.824Z,3.90
2018-01-23T15:23:07.310Z,3.90
2018-01-23T15:25:34.395Z,3.90
2018-01-23T15:28:01.895Z,4.00
2018-01-23T15:30:29.567Z,3.80
2018-01-23T15:32:56.358Z,3.80
2018-01-23T15:35:23.519Z,3.70
2018-01-23T15:37:50.686Z,3.80
2018-01-23T15:40:18.647Z,3.80
2018-01-23T15:42:45.025Z,3.80
2018-01-23T15:45:12.053Z,3.90
2018-01-23T15:47:39.172Z,3.90
2018-01-23T15:50:05.410Z,3.90
2018-01-23T15:52:31.811Z,3.90
2018-01-23T15:54:58.040Z,3.90
2018-01-23T15:57:24.282Z,3.80
2018-01-23T15:59:51.255Z,3.90
2018-01-23T16:02:18.711Z,3.80
2018-01-23T16:04:45.840Z,3.80
2018-01-23T16:07:12.621Z,3.80
2018-01-23T16:09:39.361Z,3.90
2018-01-23T16:12:06.086Z,3.90
2018-01-23T16:14:32.359Z,3.90
2018-01-23T16:16:59.221Z,3.80
2018-01-23T16:19:26.081Z,3.70
2018-01-23T16:21:52.468Z,3.70
2018-01-23T16:24:19.314Z,3.70
2018-01-23T16:26:45.524Z,3.80
2018-01-23T16:29:11.716Z,3.80
2018-01-23T16:31:39.192Z,3.70
2018-01-23T16:34:05.644Z,3.70
2018-01-23T16:36:31.835Z,3.80
2018-01-23T16:38:58.891Z,3.70
2018-01-23T16:41:25.871Z,3.60
2018-01-23T16:43:52.082Z,3.60
2018-01-23T16:46:18.330Z,3.60
2018-01-23T16:48:44.956Z,3.50
2018-01-23T16:51:12.098Z,3.60
2018-01-23T16:53:38.753Z,3.60
2018-01-23T16:56:05.010Z,3.60
2018-01-23T16:58:31.253Z,3.60
2018-01-23T17:00:57.746Z,3.60
2018-01-23T17:03:24.617Z,3.70
2018-01-23T17:05:51.215Z,3.70
2018-01-23T17:08:18.648Z,3.60
2018-01-23T17:10:45.018Z,3.60
2018-01-23T17:13:11.232Z,3.50
2018-01-23T17:15:37.884Z,3.40
2018-01-23T17:18:05.195Z,3.40
2018-01-23T17:20:32.881Z,3.40
2018-01-23T17:22:59.891Z,3.40
2018-01-23T17:25:27.167Z,3.60
2018-01-23T17:27:54.213Z,3.50
2018-01-23T17:30:21.099Z,3.50
2018-01-23T17:32:47.354Z,3.50
2018-01-23T17:35:14.714Z,3.50
2018-01-23T17:37:41.765Z,3.50
2018-01-23T17:40:08.747Z,3.60
2018-01-23T17:42:34.970Z,3.60
2018-01-23T17:45:01.388Z,3.60
2018-01-23T17:47:28.915Z,3.60
2018-01-23T17:49:55.251Z,3.60
2018-01-23T17:52:21.456Z,3.60
2018-01-23T17:54:47.938Z,3.60
2018-01-23T17:57:14.171Z,3.50
2018-01-23T17:59:40.749Z,3.50
2018-01-23T18:02:07.091Z,3.50
2018-01-23T18:04:33.696Z,3.50
2018-01-23T18:07:00.150Z,3.50
2018-01-23T18:09:31.834Z,3.50
2018-01-23T18:11:58.424Z,3.50
2018-01-23T18:14:26.120Z,3.30
2018-01-23T18:16:52.567Z,3.30
2018-01-23T18:19:19.732Z,3.30
2018-01-23T18:21:47.504Z,3.30
2018-01-23T18:24:14.266Z,3.30
2018-01-23T18:26:40.523Z,3.30
2018-01-23T18:29:07.152Z,3.20
2018-01-23T18:31:35.274Z,3.20
2018-01-23T18:34:02.438Z,3.10
2018-01-23T18:36:28.666Z,3.10
2018-01-23T18:38:54.895Z,3.10
2018-01-23T18:41:21.360Z,3.20
2018-01-23T18:43:48.374Z,3.20
2018-01-23T18:46:14.605Z,3.20
2018-01-23T18:48:40.806Z,3.20
2018-01-23T18:51:08.263Z,3.30
2018-01-23T18:53:35.779Z,3.20
2018-01-23T18:56:03.712Z,3.10
2018-01-23T18:58:30.182Z,3.10
2018-01-23T19:00:57.595Z,3.00
2018-01-23T19:03:23.953Z,3.00
2018-01-23T19:05:50.250Z,3.10
2018-01-23T19:08:17.262Z,3.20
2018-01-23T19:10:43.511Z,3.20
2018-01-23T19:13:10.764Z,3.30
2018-01-23T19:15:38.098Z,3.40
2018-01-23T19:18:04.358Z,3.40
2018-01-23T19:20:31.632Z,3.50
2018-01-23T19:22:57.846Z,3.50
2018-01-23T19:25:24.093Z,3.40
2018-01-23T19:27:50.301Z,3.40
2018-01-23T19:30:17.158Z,3.40
2018-01-23T19:32:43.431Z,3.40
2018-01-23T19:35:10.039Z,3.40
2018-01-23T19:37:36.855Z,3.30
2018-01-23T19:40:04.121Z,3.40
2018-01-23T19:42:30.379Z,3.40
2018-01-23T19:44:56.586Z,3.60
2018-01-23T19:47:22.945Z,3.50
2018-01-23T19:49:49.941Z,3.50
2018-01-23T19:52:17.047Z,3.40
2018-01-23T19:54:44.571Z,3.40
2018-01-23T19:57:11.765Z,3.30
2018-01-23T19:59:38.597Z,3.30
2018-01-23T20:02:05.427Z,3.20
2018-01-23T20:04:31.884Z,3.20
2018-01-23T20:06:58.539Z,3.20
2018-01-23T20:09:25.806Z,3.30
2018-01-23T20:11:52.846Z,3.30
2018-01-23T20:14:19.146Z,3.20
2018-01-23T20:16:46.129Z,3.20
2018-01-23T20:19:12.753Z,3.20
2018-01-23T20:21:39.847Z,3.40
2018-01-23T20:24:06.357Z,3.40
2018-01-23T20:26:32.766Z,3.40
2018-01-23T20:28:59.964Z,3.30
2018-01-23T20:31:26.601Z,3.20
2018-01-23T20:33:52.919Z,3.10
2018-01-23T20:36:19.588Z,3.00
2018-01-23T20:38:46.569Z,3.10
2018-01-23T20:41:13.988Z,3.10
2018-01-23T20:43:40.275Z,3.10
2018-01-23T20:46:06.549Z,3.20
2018-01-23T20:48:34.099Z,3.30
2018-01-23T20:51:00.870Z,3.40
2018-01-23T20:53:28.207Z,3.20
2018-01-23T20:55:55.216Z,3.20
2018-01-23T20:58:21.531Z,3.20
2018-01-23T21:00:48.214Z,3.20
2018-01-23T21:03:14.865Z,3.20
2018-01-23T21:05:41.937Z,3.20
2018-01-23T21:08:08.986Z,3.20
2018-01-23T21:10:35.916Z,3.30
2018-01-23T21:13:04.023Z,3.50
2018-01-23T21:15:30.510Z,3.50
2018-01-23T21:17:57.787Z,3.40
2018-01-23T21:20:24.866Z,3.30
2018-01-23T21:22:51.115Z,3.30
2018-01-23T21:25:17.508Z,3.20
2018-01-23T21:27:43.747Z,3.20
2018-01-23T21:30:09.970Z,3.20
2018-01-23T21:32:36.760Z,3.30
2018-01-23T21:35:03.824Z,3.10
2018-01-23T21:37:31.730Z,3.10
2018-01-23T21:39:58.486Z,3.10
2018-01-23T21:42:24.702Z,3.10
2018-01-23T21:44:50.904Z,3.00
2018-01-23T21:47:17.452Z,3.00
2018-01-23T21:49:43.777Z,3.00
2018-01-23T21:52:10.386Z,3.10
2018-01-23T21:54:37.840Z,3.10
2018-01-23T21:57:05.019Z,3.20
2018-01-23T21:59:32.237Z,3.30
2018-01-23T22:01:59.733Z,3.20
2018-01-23T22:04:25.932Z,3.20
2018-01-23T22:06:52.872Z,3.40
2018-01-23T22:09:20.776Z,3.30
2018-01-23T22:11:47.273Z,3.30
2018-01-23T22:14:15.230Z,3.20
2018-01-23T22:16:42.763Z,3.20
2018-01-23T22:19:09.065Z,3.10
2018-01-23T22:21:35.271Z,3.20
2018-01-23T22:24:02.139Z,3.30
2018-01-23T22:26:28.529Z,3.30
2018-01-23T22:28:55.428Z,3.30
2018-01-23T22:31:21.902Z,3.30
2018-01-23T22:33:48.983Z,3.10
2018-01-23T22:36:16.372Z,3.00
2018-01-23T22:38:43.254Z,3.00
2018-01-23T22:41:10.615Z,3.10
2018-01-23T22:43:36.854Z,3.10
2018-01-23T22:46:03.066Z,3.20
2018-01-23T22:48:30.263Z,3.20
2018-01-23T22:50:57.330Z,3.30
2018-01-23T22:53:24.237Z,3.20
2018-01-23T22:55:50.549Z,3.20
2018-01-23T22:58:17.806Z,3.20
2018-01-23T23:00:44.596Z,3.30
2018-01-23T23:03:11.579Z,3.30
2018-01-23T23:05:39.197Z,3.20
2018-01-23T23:08:05.608Z,3.20
2018-01-23T23:10:32.063Z,3.10
2018-01-23T23:12:59.066Z,3.10
2018-01-23T23:15:26.369Z,3.10
2018-01-23T23:17:52.759Z,3.00
2018-01-23T23:20:19.260Z,3.00
2018-01-23T23:22:45.442Z,3.10
2018-01-23T23:25:13.111Z,3.20
2018-01-23T23:27:40.472Z,3.30
2018-01-23T23:30:07.467Z,3.30
2018-01-23T23:32:34.187Z,3.30
2018-01-23T23:35:02.303Z,3.40
2018-01-23T23:37:29.859Z,3.20
2018-01-23T23:39:57.129Z,3.10
2018-01-23T23:42:24.174Z,3.10
2018-01-23T23:44:50.398Z,3.10
2018-01-23T23:47:16.617Z,3.10
2018-01-23T23:49:43.076Z,3.00
2018-01-23T23:52:10.071Z,3.00
2018-01-23T23:54:36.556Z,3.00
2018-01-23T23:57:04.557Z,3.10
2018-01-23T23:59:32.503Z,3.10
